Terminal Aerodrome Forecast
Issued by NWS Cleveland, OH

Home | Current Version | Previous Version | Text Only | Print | Product List | Glossary Off
Versions: 1 2 3 4 5 6 7 8 9 10 11 12 13 14 15 16 17 18 19 20 21 22 23 24

000
FTUS41 KCLE 260500
TAFMFD
TAF
KMFD 260534Z 2606/2706 16008KT P6SM SCT250
      TEMPO 2611/2613 3SM BR
     FM261400 21008KT P6SM SCT035 BKN150
     FM270300 25005KT 6SM BR VCTS SCT025 OVC035CB=

USA.gov is the U.S. government's official web portal to all federal, state and local government web resources and services.